createdAt,value
2022-08-11T00:02:00.860Z,98984.38
2022-08-11T00:04:34.577Z,98985.97
2022-08-11T00:07:04.002Z,98988.97
2022-08-11T00:09:39.454Z,98984.38
2022-08-11T00:12:14.775Z,98985.22
2022-08-11T00:14:42.994Z,98981.72
2022-08-11T00:17:13.164Z,98976.91
2022-08-11T00:20:13.044Z,98979.31
2022-08-11T00:22:32.242Z,98985.50
2022-08-11T00:25:08.926Z,98981.72
2022-08-11T00:27:37.282Z,98984.69
2022-08-11T00:30:06.588Z,98980.94
2022-08-11T00:32:34.075Z,98975.28
2022-08-11T00:35:51.968Z,98980.66
2022-08-11T00:37:52.821Z,98974.75
2022-08-11T00:40:30.467Z,98970.72
2022-08-11T00:43:20.408Z,98971.56
2022-08-11T00:46:11.404Z,98969.41
2022-08-11T00:49:02.145Z,98963.78
2022-08-11T00:51:56.761Z,98958.13
2022-08-11T00:54:48.310Z,98958.41
2022-08-11T00:57:37.007Z,98961.88
2022-08-11T01:00:05.720Z,98952.75
2022-08-11T01:02:47.711Z,98953.56
2022-08-11T01:05:39.112Z,98950.06
2022-08-11T01:08:35.282Z,98946.31
2022-08-11T01:11:34.190Z,98952.22
2022-08-11T01:14:40.236Z,98943.66
2022-08-11T01:17:26.745Z,98936.66
2022-08-11T01:20:45.970Z,98940.41
2022-08-11T01:22:57.576Z,98942.81
2022-08-11T01:25:57.157Z,98935.03
2022-08-11T01:28:54.882Z,98931.56
2022-08-11T01:31:36.516Z,98939.06
2022-08-11T01:34:34.178Z,98936.66
2022-08-11T01:37:31.675Z,98934.25
2022-08-11T01:40:18.149Z,98930.72
2022-08-11T01:43:02.102Z,98935.56
2022-08-11T01:45:36.352Z,98937.44
2022-08-11T01:48:15.697Z,98934.25
2022-08-11T01:50:43.295Z,98933.41
2022-08-11T01:53:39.907Z,98928.06
2022-08-11T01:56:37.304Z,98928.06
2022-08-11T01:59:19.138Z,98925.13
2022-08-11T02:01:58.440Z,98917.59
2022-08-11T02:04:47.022Z,98924.56
2022-08-11T02:07:22.087Z,98916.78
2022-08-11T02:10:36.554Z,98927.25
2022-08-11T02:13:18.780Z,98917.31
2022-08-11T02:16:13.539Z,98914.09
2022-08-11T02:19:00.994Z,98915.44
2022-08-11T02:21:51.432Z,98913.56
2022-08-11T02:24:26.836Z,98910.34
2022-08-11T02:27:07.498Z,98911.16
2022-08-11T02:29:55.686Z,98910.09
2022-08-11T02:32:50.655Z,98905.50
2022-08-11T02:35:17.285Z,98913.56
2022-08-11T02:38:00.301Z,98901.75
2022-08-11T02:40:34.227Z,98897.47
2022-08-11T02:43:02.071Z,98901.22
2022-08-11T02:45:59.231Z,98897.47
2022-08-11T02:48:56.257Z,98896.13
2022-08-11T02:51:32.713Z,98896.66
2022-08-11T02:54:21.558Z,98893.16
2022-08-11T02:57:11.438Z,98900.69
2022-08-11T02:59:53.497Z,98899.06
2022-08-11T03:02:43.460Z,98888.06
2022-08-11T03:05:12.117Z,98893.66
2022-08-11T03:07:39.778Z,98890.19
2022-08-11T03:10:29.855Z,98896.34
2022-08-11T03:13:19.566Z,98897.41
2022-08-11T03:16:22.150Z,98897.41
2022-08-11T03:19:04.112Z,98891.25
2022-08-11T03:22:03.153Z,98893.13
2022-08-11T03:24:42.582Z,98899.56
2022-08-11T03:27:38.279Z,98894.97
2022-08-11T03:30:07.829Z,98894.72
2022-08-11T03:33:11.756Z,98903.84
2022-08-11T03:35:47.899Z,98904.94
2022-08-11T03:38:15.917Z,98902.78
2022-08-11T03:42:02.366Z,98899.81
2022-08-11T03:44:31.315Z,98894.66
2022-08-11T03:47:18.891Z,98894.91
2022-08-11T03:50:00.751Z,98899.94
2022-08-11T03:52:43.301Z,98897.50
2022-08-11T03:55:27.644Z,98901.47
2022-08-11T03:58:29.758Z,98904.63
2022-08-11T04:01:32.521Z,98901.34
2022-08-11T04:04:15.350Z,98901.00
2022-08-11T04:07:05.594Z,98899.63
2022-08-11T04:09:47.484Z,98891.56
2022-08-11T04:12:35.915Z,98896.34
2022-08-11T04:15:46.158Z,98893.84
2022-08-11T04:18:48.040Z,98893.84
2022-08-11T04:21:35.607Z,98886.56
2022-08-11T04:24:39.524Z,98892.94
2022-08-11T04:27:37.075Z,98898.28
2022-08-11T04:30:33.020Z,98895.38
2022-08-11T04:32:59.808Z,98896.72
2022-08-11T04:35:55.223Z,98897.84
2022-08-11T04:38:45.170Z,98898.38
2022-08-11T04:42:06.788Z,98899.72
2022-08-11T04:45:12.043Z,98903.75
2022-08-11T04:48:24.548Z,98903.22
2022-08-11T04:51:38.091Z,98912.06
2022-08-11T04:54:28.813Z,98907.50
2022-08-11T04:57:20.615Z,98907.28
2022-08-11T05:00:20.864Z,98905.91
2022-08-11T05:03:03.552Z,98907.56
2022-08-11T05:05:54.610Z,98907.56
2022-08-11T05:08:39.043Z,98909.19
2022-08-11T05:11:36.239Z,98907.06
2022-08-11T05:14:33.301Z,98910.81
2022-08-11T05:17:24.578Z,98910.84
2022-08-11T05:20:09.954Z,98907.91
2022-08-11T05:22:55.173Z,98913.31
2022-08-11T05:26:44.597Z,98921.34
2022-08-11T05:28:50.156Z,98919.03
2022-08-11T05:31:34.739Z,98920.09
2022-08-11T05:34:23.961Z,98919.59
2022-08-11T05:36:59.184Z,98922.31
2022-08-11T05:39:59.611Z,98921.81
2022-08-11T05:42:41.998Z,98919.41
2022-08-11T05:45:29.329Z,98923.44
2022-08-11T05:48:31.551Z,98926.97
2022-08-11T05:51:16.499Z,98915.44
2022-08-11T05:54:28.346Z,98914.72
2022-08-11T05:56:59.993Z,98916.03
2022-08-11T05:59:28.501Z,98914.97
2022-08-11T06:02:02.771Z,98914.44
2022-08-11T06:04:30.112Z,98919.00
2022-08-11T06:06:59.743Z,98911.78
2022-08-11T06:09:31.133Z,98917.19
2022-08-11T06:12:01.590Z,98920.41
2022-08-11T06:14:29.338Z,98916.13
2022-08-11T06:16:59.867Z,98920.72
2022-08-11T06:19:36.479Z,98923.97
2022-08-11T06:22:05.489Z,98928.25
2022-08-11T06:24:34.352Z,98916.50
2022-08-11T06:27:12.271Z,98923.78
2022-08-11T06:29:54.275Z,98925.66
2022-08-11T06:32:25.724Z,98929.69
2022-08-11T06:34:53.272Z,98919.25
2022-08-11T06:37:35.817Z,98927.28
2022-08-11T06:40:09.482Z,98924.88
2022-08-11T06:42:45.126Z,98930.78
2022-08-11T06:45:37.554Z,98927.31
2022-08-11T06:48:06.643Z,98927.56
2022-08-11T06:50:49.172Z,98928.66
2022-08-11T06:53:19.371Z,98923.78
2022-08-11T06:56:04.825Z,98924.84
2022-08-11T06:58:56.356Z,98919.75
2022-08-11T07:01:37.070Z,98914.91
2022-08-11T07:04:08.330Z,98922.41
2022-08-11T07:07:09.050Z,98917.03
2022-08-11T07:10:16.448Z,98920.47
2022-08-11T07:13:03.430Z,98911.78
2022-08-11T07:16:12.275Z,98913.66
2022-08-11T07:18:52.888Z,98910.66
2022-08-11T07:22:00.873Z,98910.56
2022-08-11T07:24:59.577Z,98903.81
2022-08-11T07:27:51.524Z,98907.22
2022-08-11T07:30:18.411Z,98906.63
2022-08-11T07:32:52.872Z,98905.72
2022-08-11T07:35:31.742Z,98898.91
2022-08-11T07:38:05.780Z,98904.47
2022-08-11T07:40:35.512Z,98900.06
2022-08-11T07:43:04.180Z,98904.59
2022-08-11T07:45:47.483Z,98908.34
2022-08-11T07:48:31.565Z,98904.00
2022-08-11T07:51:15.176Z,98903.75
2022-08-11T07:54:03.077Z,98894.53
2022-08-11T07:56:33.121Z,98904.94
2022-08-11T07:59:57.504Z,98901.88
2022-08-11T08:02:35.951Z,98898.19
2022-08-11T08:05:18.159Z,98901.13
2022-08-11T08:08:00.475Z,98895.09
2022-08-11T08:10:43.287Z,98888.50
2022-08-11T08:13:25.345Z,98896.81
2022-08-11T08:16:08.900Z,98892.94
2022-08-11T08:18:38.041Z,98896.06
2022-08-11T08:21:14.696Z,98890.78
2022-08-11T08:23:44.626Z,98893.25
2022-08-11T08:26:29.977Z,98894.63
2022-08-11T08:29:20.575Z,98888.56
2022-08-11T08:31:49.572Z,98887.28
2022-08-11T08:34:17.633Z,98890.84
2022-08-11T08:36:47.489Z,98885.00
2022-08-11T08:39:14.839Z,98885.53
2022-08-11T08:41:43.736Z,98891.47
2022-08-11T08:44:37.242Z,98888.84
2022-08-11T08:47:06.111Z,98887.53
2022-08-11T08:49:40.406Z,98884.66
2022-08-11T08:52:25.323Z,98883.38
2022-08-11T08:55:01.729Z,98878.94
2022-08-11T08:57:39.122Z,98876.19
2022-08-11T09:00:08.876Z,98882.41
2022-08-11T09:02:39.746Z,98879.78
2022-08-11T09:05:10.020Z,98881.78
2022-08-11T09:07:39.567Z,98885.50
2022-08-11T09:10:08.495Z,98883.88
2022-08-11T09:12:38.970Z,98883.44
2022-08-11T09:15:09.300Z,98877.50
2022-08-11T09:17:41.249Z,98882.63
2022-08-11T09:20:18.052Z,98880.00
2022-08-11T09:23:54.613Z,98875.56
2022-08-11T09:26:10.624Z,98871.72
2022-08-11T09:28:37.726Z,98869.53
2022-08-11T09:31:06.268Z,98871.72
2022-08-11T09:33:33.545Z,98874.31
2022-08-11T09:36:20.972Z,98864.19
2022-08-11T09:39:03.770Z,98869.50
2022-08-11T09:42:01.672Z,98865.56
2022-08-11T09:44:33.741Z,98857.81
2022-08-11T09:47:02.467Z,98857.47
2022-08-11T09:49:30.165Z,98850.31
2022-08-11T09:52:04.973Z,98856.56
2022-08-11T09:54:32.060Z,98852.63
2022-08-11T09:57:14.095Z,98853.88
2022-08-11T09:59:41.499Z,98860.91
2022-08-11T10:02:11.003Z,98857.94
2022-08-11T10:04:42.049Z,98856.72
2022-08-11T10:07:10.884Z,98846.03
2022-08-11T10:10:01.445Z,98848.75
2022-08-11T10:12:36.122Z,98847.69
2022-08-11T10:15:23.350Z,98832.53
2022-08-11T10:18:16.040Z,98834.50
2022-08-11T10:20:45.229Z,98835.50
2022-08-11T10:23:28.986Z,98827.53
2022-08-11T10:26:12.337Z,98829.78
2022-08-11T10:28:55.987Z,98826.75
2022-08-11T10:31:55.448Z,98828.00
2022-08-11T10:34:26.709Z,98819.84
2022-08-11T10:36:57.303Z,98826.56
2022-08-11T10:39:26.986Z,98822.75
2022-08-11T10:42:18.280Z,98821.59
2022-08-11T10:45:01.307Z,98816.19
2022-08-11T10:47:35.996Z,98817.16
2022-08-11T10:50:23.317Z,98812.59
2022-08-11T10:53:06.636Z,98820.06
2022-08-11T10:55:50.778Z,98803.47
2022-08-11T10:58:33.843Z,98791.19
2022-08-11T11:01:01.703Z,98802.34
2022-08-11T11:03:31.064Z,98799.97
2022-08-11T11:06:12.591Z,98795.47
2022-08-11T11:09:09.553Z,98802.81
2022-08-11T11:11:55.105Z,98795.78
2022-08-11T11:14:46.210Z,98796.91
2022-08-11T11:17:37.643Z,98790.53
2022-08-11T11:20:06.872Z,98792.47
2022-08-11T11:22:41.461Z,98797.72
2022-08-11T11:25:38.586Z,98787.50
2022-08-11T11:28:28.245Z,98782.84
2022-08-11T11:31:15.714Z,98779.84
2022-08-11T11:34:12.518Z,98777.25
2022-08-11T11:36:49.440Z,98773.91
2022-08-11T11:39:22.626Z,98780.44
2022-08-11T11:41:53.162Z,98771.50
2022-08-11T11:44:22.771Z,98778.22
2022-08-11T11:46:50.957Z,98768.50
2022-08-11T11:51:53.882Z,98770.19
2022-08-11T11:54:24.401Z,98769.53
2022-08-11T11:56:53.686Z,98762.91
2022-08-11T11:59:38.471Z,98768.25
2022-08-11T12:02:07.500Z,98762.56
2022-08-11T12:04:42.945Z,98768.34
2022-08-11T12:07:26.416Z,98765.69
2022-08-11T12:09:53.912Z,98761.84
2022-08-11T12:12:36.984Z,98761.56
2022-08-11T12:15:05.194Z,98760.94
2022-08-11T12:17:31.966Z,98749.41
2022-08-11T12:19:59.040Z,98751.97
2022-08-11T12:22:44.463Z,98744.88
2022-08-11T12:25:26.715Z,98748.94
2022-08-11T12:27:55.437Z,98743.56
2022-08-11T12:30:22.867Z,98739.53
2022-08-11T12:32:50.213Z,98733.22
2022-08-11T12:35:17.074Z,98725.19
2022-08-11T12:37:48.294Z,98724.59
2022-08-11T12:40:42.518Z,98727.44
2022-08-11T12:43:39.643Z,98728.28
2022-08-11T12:46:12.469Z,98727.69
2022-08-11T12:49:02.538Z,98721.53
2022-08-11T12:52:01.432Z,98717.38
2022-08-11T12:54:44.709Z,98710.53
2022-08-11T12:57:36.434Z,98705.63
2022-08-11T13:00:22.395Z,98718.56
2022-08-11T13:03:05.150Z,98721.28
2022-08-11T13:05:33.281Z,98707.31
2022-08-11T13:08:08.323Z,98702.44
2022-08-11T13:10:51.090Z,98709.63
2022-08-11T13:13:52.587Z,98705.81
2022-08-11T13:16:08.502Z,98706.94
2022-08-11T13:18:35.518Z,98705.59
2022-08-11T13:21:05.772Z,98701.81
2022-08-11T13:23:33.048Z,98696.81
2022-08-11T13:26:01.506Z,98697.31
2022-08-11T13:28:28.445Z,98701.06
2022-08-11T13:31:10.938Z,98706.31
2022-08-11T13:33:43.512Z,98696.47
2022-08-11T13:36:12.106Z,98694.66
2022-08-11T13:38:43.581Z,98686.25
2022-08-11T13:41:27.889Z,98674.84
2022-08-11T13:43:55.932Z,98674.09
2022-08-11T13:46:24.572Z,98679.25
2022-08-11T13:49:00.615Z,98675.22
2022-08-11T13:51:35.102Z,98669.59
2022-08-11T13:54:09.041Z,98668.91
2022-08-11T13:56:41.491Z,98673.91
2022-08-11T13:59:09.351Z,98666.72
2022-08-11T14:02:19.926Z,98667.75
2022-08-11T14:04:33.660Z,98660.41
2022-08-11T14:07:06.561Z,98653.44
2022-08-11T14:09:37.719Z,98661.41
2022-08-11T14:12:28.517Z,98655.69
2022-08-11T14:15:07.573Z,98647.94
2022-08-11T14:17:48.041Z,98649.81
2022-08-11T14:20:40.183Z,98646.47
2022-08-11T14:23:06.065Z,98644.72
2022-08-11T14:26:00.790Z,98632.81
2022-08-11T14:28:31.714Z,98629.47
2022-08-11T14:31:03.176Z,98634.94
2022-08-11T14:33:58.143Z,98626.97
2022-08-11T14:36:24.235Z,98633.00
2022-08-11T14:38:51.390Z,98633.72
2022-08-11T14:41:34.135Z,98630.44
2022-08-11T14:44:16.765Z,98629.66
2022-08-11T14:46:59.302Z,98638.28
2022-08-11T14:49:27.743Z,98635.13
2022-08-11T14:51:57.170Z,98633.34
2022-08-11T14:54:41.902Z,98628.69
2022-08-11T14:57:09.672Z,98629.75
2022-08-11T14:59:38.301Z,98624.19
2022-08-11T15:02:21.392Z,98621.41
2022-08-11T15:04:48.191Z,98626.41
2022-08-11T15:07:17.205Z,98629.56
2022-08-11T15:12:33.769Z,98619.00
2022-08-11T15:15:17.058Z,98619.75
2022-08-11T15:17:45.316Z,98623.13
2022-08-11T15:20:33.469Z,98623.38
2022-08-11T15:23:15.615Z,98617.75
2022-08-11T15:25:46.464Z,98611.56
2022-08-11T15:28:31.185Z,98623.38
2022-08-11T15:31:14.792Z,98616.31
2022-08-11T15:33:59.390Z,98615.53
2022-08-11T15:36:44.779Z,98612.69
2022-08-11T15:39:24.180Z,98605.72
2022-08-11T15:42:22.086Z,98597.78
2022-08-11T15:45:10.353Z,98601.00
2022-08-11T15:47:44.560Z,98591.78
2022-08-11T15:50:17.957Z,98591.19
2022-08-11T15:52:58.414Z,98585.56
2022-08-11T15:55:26.137Z,98585.06
2022-08-11T15:58:10.645Z,98591.00
2022-08-11T16:01:03.646Z,98589.00
2022-08-11T16:04:07.769Z,98592.16
2022-08-11T16:06:44.827Z,98586.34
2022-08-11T16:09:18.520Z,98589.97
2022-08-11T16:11:48.253Z,98588.09
2022-08-11T16:14:32.941Z,98597.72
2022-08-11T16:17:00.958Z,98595.19
2022-08-11T16:19:34.847Z,98592.94
2022-08-11T16:22:07.258Z,98592.00
2022-08-11T16:27:05.883Z,98588.63
2022-08-11T16:27:26.106Z,98591.66
2022-08-11T16:29:55.268Z,98577.44
2022-08-11T16:32:24.244Z,98581.78
2022-08-11T16:35:12.989Z,98581.97
2022-08-11T16:37:56.844Z,98582.94
2022-08-11T16:40:24.461Z,98585.97
2022-08-11T16:43:11.066Z,98581.41
2022-08-11T16:45:55.776Z,98575.19
2022-08-11T16:48:35.893Z,98582.91
2022-08-11T16:51:07.269Z,98580.84
2022-08-11T16:54:03.376Z,98585.00
2022-08-11T16:56:30.150Z,98578.81
2022-08-11T16:59:17.084Z,98574.78
2022-08-11T17:01:53.483Z,98582.78
2022-08-11T17:04:43.994Z,98588.69
2022-08-11T17:07:42.453Z,98588.53
2022-08-11T17:10:50.936Z,98585.53
2022-08-11T17:13:25.951Z,98589.34
2022-08-11T17:16:13.246Z,98583.47
2022-08-11T17:19:02.908Z,98585.22
2022-08-11T17:22:01.452Z,98586.81
2022-08-11T17:24:31.580Z,98586.34
2022-08-11T17:27:00.763Z,98589.69
2022-08-11T17:29:29.362Z,98593.69
2022-08-11T17:32:11.872Z,98590.97
2022-08-11T17:34:57.464Z,98587.63
2022-08-11T17:37:25.303Z,98598.59
2022-08-11T17:39:53.949Z,98591.09
2022-08-11T17:42:37.287Z,98596.50
2022-08-11T17:45:21.086Z,98601.13
2022-08-11T17:48:03.934Z,98608.16
2022-08-11T17:50:31.225Z,98610.53
2022-08-11T17:53:14.931Z,98609.56
2022-08-11T17:55:58.193Z,98614.81
2022-08-11T17:58:46.278Z,98618.13
2022-08-11T18:01:14.171Z,98618.59
2022-08-11T18:03:57.772Z,98623.34
2022-08-11T18:06:32.589Z,98619.53
2022-08-11T18:09:20.598Z,98625.38
2022-08-11T18:12:10.683Z,98620.38
2022-08-11T18:14:55.980Z,98621.00
2022-08-11T18:17:38.107Z,98622.75
2022-08-11T18:20:21.861Z,98621.13
2022-08-11T18:23:05.448Z,98627.13
2022-08-11T18:25:50.780Z,98631.09
2022-08-11T18:28:38.248Z,98638.84
2022-08-11T18:31:23.383Z,98637.88
2022-08-11T18:34:08.424Z,98639.59
2022-08-11T18:36:57.006Z,98645.44
2022-08-11T18:39:40.537Z,98642.38
2022-08-11T18:42:31.516Z,98644.22
2022-08-11T18:45:17.728Z,98638.63
2022-08-11T18:48:01.267Z,98643.63
2022-08-11T18:50:44.052Z,98642.94
2022-08-11T18:53:30.954Z,98653.22
2022-08-11T18:56:14.808Z,98659.09
2022-08-11T18:59:00.161Z,98659.06
2022-08-11T19:01:46.129Z,98656.19
2022-08-11T19:04:29.900Z,98657.13
2022-08-11T19:07:17.369Z,98659.19
2022-08-11T19:10:04.510Z,98663.19
2022-08-11T19:12:55.306Z,98665.38
2022-08-11T19:15:39.075Z,98669.97
2022-08-11T19:18:22.706Z,98672.56
2022-08-11T19:21:06.029Z,98688.63
2022-08-11T19:23:51.873Z,98688.13
2022-08-11T19:26:34.213Z,98689.81
2022-08-11T19:30:12.036Z,98679.59
2022-08-11T19:32:20.570Z,98678.28
2022-08-11T19:35:03.902Z,98677.53
2022-08-11T19:37:47.476Z,98680.31
2022-08-11T19:40:31.089Z,98689.63
2022-08-11T19:43:25.614Z,98676.78
2022-08-11T19:46:12.063Z,98678.47
2022-08-11T19:48:56.121Z,98680.44
2022-08-11T19:51:40.076Z,98676.72
2022-08-11T19:54:22.797Z,98681.66
2022-08-11T19:57:05.652Z,98685.03
2022-08-11T19:59:49.223Z,98688.63
2022-08-11T20:02:31.829Z,98691.88
2022-08-11T20:05:13.838Z,98695.94
2022-08-11T20:07:56.355Z,98697.13
2022-08-11T20:10:40.990Z,98697.50
2022-08-11T20:13:25.076Z,98701.06
2022-08-11T20:16:09.694Z,98704.94
2022-08-11T20:18:53.296Z,98701.69
2022-08-11T20:21:36.578Z,98709.38
2022-08-11T20:24:18.922Z,98702.44
2022-08-11T20:27:02.972Z,98704.34
2022-08-11T20:29:50.561Z,98705.47
2022-08-11T20:32:33.256Z,98711.09
2022-08-11T20:35:16.572Z,98701.94
2022-08-11T20:37:59.986Z,98713.25
2022-08-11T20:40:43.202Z,98708.38
2022-08-11T20:44:06.033Z,98712.44
2022-08-11T20:46:35.522Z,98710.31
2022-08-11T20:49:18.561Z,98709.56
2022-08-11T20:52:06.230Z,98703.38
2022-08-11T20:54:50.342Z,98706.06
2022-08-11T20:57:50.474Z,98704.22
2022-08-11T21:00:39.269Z,98705.34
2022-08-11T21:03:35.885Z,98705.94
2022-08-11T21:06:32.893Z,98708.44
2022-08-11T21:09:19.939Z,98713.81
2022-08-11T21:12:03.539Z,98708.50
2022-08-11T21:14:49.842Z,98719.81
2022-08-11T21:17:36.351Z,98720.97
2022-08-11T21:20:39.145Z,98717.50
2022-08-11T21:23:27.837Z,98717.06
2022-08-11T21:26:17.729Z,98714.69
2022-08-11T21:29:01.417Z,98717.97
2022-08-11T21:31:47.035Z,98723.66
2022-08-11T21:34:32.383Z,98720.47
2022-08-11T21:37:16.905Z,98723.75
2022-08-11T21:40:02.464Z,98729.13
2022-08-11T21:42:47.783Z,98735.03
2022-08-11T21:45:30.863Z,98727.50
2022-08-11T21:48:13.890Z,98727.75
2022-08-11T21:50:55.968Z,98721.00
2022-08-11T21:53:39.028Z,98720.44
2022-08-11T21:56:22.383Z,98716.41
2022-08-11T21:59:09.775Z,98724.19
2022-08-11T22:01:52.157Z,98733.84
2022-08-11T22:04:35.684Z,98720.13
2022-08-11T22:07:18.000Z,98725.00
2022-08-11T22:10:00.312Z,98722.81
2022-08-11T22:13:02.352Z,98724.19
2022-08-11T22:15:44.341Z,98723.66
2022-08-11T22:18:26.451Z,98718.03
2022-08-11T22:21:09.681Z,98720.44
2022-08-11T22:23:56.385Z,98722.88
2022-08-11T22:26:39.656Z,98713.75
2022-08-11T22:29:50.096Z,98713.53
2022-08-11T22:32:27.579Z,98708.19
2022-08-11T22:35:11.982Z,98716.25
2022-08-11T22:37:55.024Z,98714.09
2022-08-11T22:40:37.089Z,98716.56
2022-08-11T22:43:19.112Z,98720.84
2022-08-11T22:46:01.201Z,98722.25
2022-08-11T22:48:45.764Z,98716.31
2022-08-11T22:51:29.135Z,98709.34
2022-08-11T22:54:12.917Z,98714.72
2022-08-11T22:56:57.824Z,98708.53
2022-08-11T22:59:40.367Z,98709.09
2022-08-11T23:02:22.717Z,98706.44
2022-08-11T23:05:05.748Z,98704.28
2022-08-11T23:07:50.038Z,98706.47
2022-08-11T23:10:34.196Z,98707.84
2022-08-11T23:13:16.296Z,98710.06
2022-08-11T23:16:04.989Z,98708.53
2022-08-11T23:18:47.748Z,98712.28
2022-08-11T23:21:31.110Z,98708.53
2022-08-11T23:24:15.178Z,98710.13
2022-08-11T23:26:57.236Z,98707.22
2022-08-11T23:29:40.810Z,98708.50
2022-08-11T23:32:22.880Z,98705.81
2022-08-11T23:35:39.551Z,98702.34
2022-08-11T23:38:14.368Z,98696.22
2022-08-11T23:40:56.386Z,98689.75
2022-08-11T23:43:39.762Z,98697.25
2022-08-11T23:46:24.112Z,98691.91
2022-08-11T23:49:11.012Z,98694.59
2022-08-11T23:51:55.612Z,98683.59
2022-08-11T23:54:37.762Z,98685.19
2022-08-11T23:57:20.526Z,98677.16
